Terminal Aerodrome Forecast
Issued by NWS

Home | Current Version | Previous Version | Text Only | Print | Product List | Glossary On
Versions: 1 2 3 4 5 6 7 8 9 10 11 12 13 14 15 16 17 18 19
000
FTUS44 KMAF 060520
TAFCNM
TAF
KCNM 060520Z 0606/0706 23008KT P6SM SCT100 BKN200
     FM061900 22011KT P6SM SCT070 BKN130
      TEMPO 0619/0623 VRB20G30KT 4SM TSRA BKN070CB=

USA.gov is the U.S. government's official web portal to all federal, state and local government web resources and services.